Time;durP1;ratioP1;P1;durP2;ratioP2;P2;SDS_P1;SDS_P2;PMS_P1;PMS_P2;Temp;Humidity;BMP_temperature;BMP_pressure;BME280_temperature;BME280_humidity;BME280_pressure;Samples;Min_cycle;Max_cycle;Signal;HPM_P1;HPM_P2
2022/07/16 00:03:29;;;;;;;;;5.50;4.00;;;;;24.10;37.52;99242.41;5077689;28;45373;-79
2022/07/16 00:05:55;;;;;;;;;8.00;8.00;;;;;24.04;37.92;99246.50;5074407;28;45417;-79
2022/07/16 00:08:21;;;;;;;;;6.50;6.50;;;;;24.02;38.61;99251.19;5077963;27;45339;-78
2022/07/16 00:10:46;;;;;;;;;9.00;9.00;;;;;23.99;38.09;99252.31;5077318;27;45337;-78
2022/07/16 00:13:12;;;;;;;;;11.50;10.75;;;;;23.98;38.28;99249.75;5073752;27;45540;-79
2022/07/16 00:15:37;;;;;;;;;12.50;10.00;;;;;23.96;38.14;99247.22;5077959;27;45955;-79
2022/07/16 00:20:46;;;;;;;;;9.50;8.75;;;;;23.91;38.35;99252.19;5077655;28;45434;-79
2022/07/16 00:23:12;;;;;;;;;9.25;9.25;;;;;23.89;38.60;99250.63;5077408;28;45473;-79
2022/07/16 00:25:37;;;;;;;;;8.25;8.25;;;;;23.86;38.22;99256.28;5076888;27;46271;-79
2022/07/16 00:28:03;;;;;;;;;8.50;8.00;;;;;23.84;38.43;99252.91;5081437;27;45450;-79
2022/07/16 00:30:29;;;;;;;;;11.50;10.00;;;;;23.80;38.52;99255.00;5077002;27;45414;-80
2022/07/16 00:32:55;;;;;;;;;9.75;9.75;;;;;23.78;38.44;99257.03;5074472;27;45607;-79
2022/07/16 00:35:20;;;;;;;;;9.00;8.00;;;;;23.76;38.20;99256.31;5075554;28;45498;-79
2022/07/16 00:37:46;;;;;;;;;9.00;8.00;;;;;23.75;38.60;99260.00;5077067;28;45431;-79
2022/07/16 00:40:11;;;;;;;;;10.00;9.50;;;;;23.75;38.89;99254.59;5077254;28;45489;-79
2022/07/16 00:42:37;;;;;;;;;11.50;10.50;;;;;23.76;38.66;99255.47;5076542;27;45526;-79
2022/07/16 00:45:02;;;;;;;;;9.25;9.25;;;;;23.75;38.89;99246.53;5076842;27;45602;-79
2022/07/16 00:47:28;;;;;;;;;8.75;8.75;;;;;23.73;39.01;99251.19;5077107;27;45460;-79
2022/07/16 00:49:53;;;;;;;;;9.50;7.75;;;;;23.72;38.93;99240.56;5077114;27;45395;-80
2022/07/16 00:52:19;;;;;;;;;10.50;9.25;;;;;23.70;39.05;99251.47;5076798;27;45297;-79
2022/07/16 00:54:44;;;;;;;;;7.50;7.50;;;;;23.66;39.37;99247.38;5076980;27;45804;-79
2022/07/16 00:57:09;;;;;;;;;9.50;9.50;;;;;23.62;38.77;99254.03;5073194;28;45479;-79
2022/07/16 00:59:35;;;;;;;;;7.50;7.50;;;;;23.60;39.23;99256.03;5076839;27;45470;-80
2022/07/16 01:02:00;;;;;;;;;10.25;9.25;;;;;23.56;39.06;99252.75;5075407;28;45729;-79
2022/07/16 01:04:26;;;;;;;;;7.00;7.00;;;;;23.52;38.96;99248.63;5076679;27;46158;-79
2022/07/16 01:06:53;;;;;;;;;10.00;8.75;;;;;23.51;38.90;99248.75;5076650;27;45439;-79
2022/07/16 01:09:20;;;;;;;;;7.00;7.00;;;;;23.48;39.40;99255.25;5075841;28;45493;-79
2022/07/16 01:11:47;;;;;;;;;8.50;8.00;;;;;23.44;39.26;99256.53;5076695;28;45558;-79
2022/07/16 01:14:14;;;;;;;;;11.25;10.00;;;;;23.42;39.42;99265.75;5076422;27;46574;-79
2022/07/16 01:16:40;;;;;;;;;8.00;7.75;;;;;23.39;39.64;99261.47;5075526;28;45376;-79
2022/07/16 01:19:08;;;;;;;;;8.75;8.25;;;;;23.38;39.69;99264.31;5077010;28;45984;-79
2022/07/16 01:21:33;;;;;;;;;11.00;8.25;;;;;23.37;39.96;99262.59;5076500;28;45568;-79
2022/07/16 01:23:58;;;;;;;;;10.75;10.50;;;;;23.33;39.92;99260.19;5076371;27;45430;-80
2022/07/16 01:26:24;;;;;;;;;10.00;8.75;;;;;23.30;39.71;99264.97;5075002;28;45521;-80
2022/07/16 01:28:49;;;;;;;;;11.50;9.25;;;;;23.25;39.81;99257.34;5072019;28;45484;-80
2022/07/16 01:31:15;;;;;;;;;8.50;8.00;;;;;23.24;40.41;99257.50;5073482;27;45423;-80
2022/07/16 01:33:42;;;;;;;;;11.00;11.00;;;;;23.19;40.00;99254.34;5074747;28;45396;-79
2022/07/16 01:36:11;;;;;;;;;9.25;9.00;;;;;23.14;40.00;99249.38;5074009;28;45498;-79
2022/07/16 01:38:37;;;;;;;;;10.25;10.00;;;;;;;;5076292;27;45406;-79
2022/07/16 01:41:02;;;;;;;;;10.00;9.25;;;;;23.07;40.49;99255.47;5076457;27;45306;-79
2022/07/16 01:43:29;;;;;;;;;10.00;8.50;;;;;23.05;40.52;99257.44;5075778;27;46189;-79
2022/07/16 01:45:56;;;;;;;;;7.50;7.50;;;;;23.00;40.43;99255.16;5076106;28;45459;-80
2022/07/16 01:48:23;;;;;;;;;11.00;9.00;;;;;22.95;40.82;99260.09;5068125;27;45409;-79
2022/07/16 01:50:49;;;;;;;;;12.75;11.00;;;;;22.88;40.72;99261.63;5073459;28;45547;-80
2022/07/16 01:53:15;;;;;;;;;10.75;10.75;;;;;22.83;41.38;99267.41;5075949;27;45404;-79
2022/07/16 01:55:42;;;;;;;;;9.00;9.00;;;;;22.79;41.65;99267.81;5074967;28;45475;-79
2022/07/16 01:58:10;;;;;;;;;9.75;9.75;;;;;22.73;41.63;99261.09;5075733;27;45435;-79
2022/07/16 02:00:37;;;;;;;;;8.50;8.25;;;;;22.68;42.04;99265.19;5076055;27;45495;-79
2022/07/16 02:03:03;;;;;;;;;10.75;10.50;;;;;22.61;41.93;99268.41;5074527;28;47353;-80
2022/07/16 02:05:29;;;;;;;;;10.50;10.00;;;;;22.58;41.47;99270.50;5075624;27;45229;-79
2022/07/16 02:07:54;;;;;;;;;10.00;10.00;;;;;22.55;41.57;99276.16;5076155;27;45388;-79
2022/07/16 02:10:19;;;;;;;;;8.50;7.25;;;;;22.55;42.21;99276.16;5075799;27;45297;-79
2022/07/16 02:12:45;;;;;;;;;8.75;8.00;;;;;22.54;41.53;99271.75;5073661;28;46820;-80
2022/07/16 02:15:11;;;;;;;;;8.00;8.00;;;;;22.53;41.89;99280.81;5075352;28;45347;-80
2022/07/16 02:17:38;;;;;;;;;11.50;8.50;;;;;22.54;41.66;99279.81;5075662;28;45448;-79
2022/07/16 02:20:06;;;;;;;;;8.75;8.00;;;;;22.53;41.96;99272.75;5075484;27;45557;-80
2022/07/16 02:22:31;;;;;;;;;11.25;11.25;;;;;22.53;42.18;99283.50;5075550;28;45656;-80
2022/07/16 02:24:57;;;;;;;;;10.00;9.75;;;;;22.52;41.45;99281.78;5075411;28;45469;-79
2022/07/16 02:27:22;;;;;;;;;10.00;9.00;;;;;22.52;42.06;99287.16;5075678;27;45281;-79
2022/07/16 02:29:47;;;;;;;;;8.00;8.00;;;;;22.52;42.12;99285.31;5067056;28;45470;-80
2022/07/16 02:32:13;;;;;;;;;9.25;9.00;;;;;22.53;42.14;99283.50;5074680;27;45507;-79
2022/07/16 02:34:38;;;;;;;;;9.75;8.50;;;;;22.52;42.39;99287.16;5074874;28;45367;-80
2022/07/16 02:37:04;;;;;;;;;8.75;8.00;;;;;22.49;42.56;99285.59;5075125;28;45427;-80
2022/07/16 02:39:29;;;;;;;;;10.00;8.00;;;;;22.44;42.42;99295.03;5074851;27;45470;-79
2022/07/16 02:41:55;;;;;;;;;8.00;8.00;;;;;22.40;42.26;99286.41;5075294;27;46088;-79
2022/07/16 02:44:20;;;;;;;;;9.25;9.25;;;;;22.37;42.32;99296.53;5074991;27;45733;-79
2022/07/16 02:46:45;;;;;;;;;9.75;9.75;;;;;22.33;42.86;99289.72;5075251;27;45854;-79
2022/07/16 02:49:11;;;;;;;;;9.75;9.75;;;;;22.29;42.72;99294.50;5074992;27;45509;-79
2022/07/16 02:51:36;;;;;;;;;8.50;7.25;;;;;22.26;42.66;99282.22;5074718;27;46338;-79
2022/07/16 02:54:02;;;;;;;;;9.00;9.00;;;;;22.25;42.73;99291.25;5073619;28;45424;-79
2022/07/16 02:56:28;;;;;;;;;12.25;10.75;;;;;22.20;42.62;99282.72;5075061;27;45497;-79
2022/07/16 02:58:53;;;;;;;;;11.00;11.00;;;;;22.16;43.94;99289.34;5073258;28;45273;-78
2022/07/16 03:01:18;;;;;;;;;9.50;8.75;;;;;22.08;43.40;99282.94;5073464;28;46955;-79
2022/07/16 03:03:46;;;;;;;;;10.50;10.00;;;;;22.00;43.28;99282.72;5074458;27;45474;-79
2022/07/16 03:06:12;;;;;;;;;4.00;4.00;;;;;21.93;44.25;99285.91;5074757;27;45459;-79
2022/07/16 03:08:37;;;;;;;;;8.50;8.50;;;;;21.85;43.85;99280.31;5078045;27;45542;-80
2022/07/16 03:11:02;;;;;;;;;10.75;9.50;;;;;21.81;43.91;99278.84;5078184;27;46272;-79
2022/07/16 03:13:28;;;;;;;;;7.75;7.75;;;;;21.76;44.34;99275.72;5077856;27;45418;-79
2022/07/16 03:15:53;;;;;;;;;10.25;10.25;;;;;21.71;44.27;99287.81;5078573;27;45804;-79
2022/07/16 03:18:19;;;;;;;;;9.75;9.00;;;;;21.67;44.82;99280.97;5078328;27;45469;-80
2022/07/16 03:20:45;;;;;;;;;9.00;7.00;;;;;21.63;44.88;99285.75;5078148;27;46583;-79
2022/07/16 03:23:10;;;;;;;;;7.25;7.25;;;;;21.61;44.89;99281.53;5078287;27;45725;-79
2022/07/16 03:25:36;;;;;;;;;11.50;11.00;;;;;21.57;44.70;99278.22;5078201;27;45321;-80
2022/07/16 03:28:01;;;;;;;;;11.25;9.50;;;;;21.55;44.71;99282.88;5077946;27;45514;-79
2022/07/16 03:30:27;;;;;;;;;9.25;8.75;;;;;21.55;44.36;99280.19;5071967;27;45587;-79
2022/07/16 03:32:52;;;;;;;;;9.00;9.00;;;;;21.55;44.25;99290.91;5076624;27;45568;-80
2022/07/16 03:35:18;;;;;;;;;12.00;11.00;;;;;21.54;44.91;99294.56;5077696;28;45906;-79
2022/07/16 03:40:28;;;;;;;;;12.00;10.75;;;;;21.51;45.17;99284.09;5077498;28;45675;-79
2022/07/16 03:42:54;;;;;;;;;10.50;9.75;;;;;21.51;45.28;99290.31;5077706;27;45369;-79
2022/07/16 03:45:20;;;;;;;;;9.75;9.75;;;;;21.50;45.51;99293.13;5076132;28;45462;-79
2022/07/16 03:47:46;;;;;;;;;12.75;11.50;;;;;21.48;45.03;99293.25;5096969;27;45363;-80
2022/07/16 03:50:11;;;;;;;;;9.75;8.50;;;;;21.46;45.14;99295.19;5093184;27;47754;-79
2022/07/16 03:52:37;;;;;;;;;11.00;9.00;;;;;21.43;45.06;99298.16;5077832;27;45410;-79
2022/07/16 03:55:02;;;;;;;;;10.75;10.00;;;;;21.40;45.81;99295.72;5078133;28;45391;-79
2022/07/16 03:57:28;;;;;;;;;9.50;9.50;;;;;21.38;45.48;99300.34;5077715;27;45377;-79
2022/07/16 03:59:53;;;;;;;;;13.25;13.00;;;;;21.35;45.92;99303.28;5077368;28;46320;-79
2022/07/16 04:02:18;;;;;;;;;11.00;10.00;;;;;21.29;46.12;99303.75;5077805;27;45498;-79
2022/07/16 04:04:44;;;;;;;;;10.25;10.25;;;;;21.26;45.97;99305.88;5077699;27;45367;-79
2022/07/16 04:07:09;;;;;;;;;10.00;10.00;;;;;21.22;46.38;99305.25;5077590;27;45499;-79
2022/07/16 04:09:35;;;;;;;;;10.25;10.25;;;;;21.18;46.62;99303.75;5077656;27;46326;-79
2022/07/16 04:12:00;;;;;;;;;10.00;10.00;;;;;21.13;46.13;99312.16;5077183;27;45645;-79
2022/07/16 04:14:25;;;;;;;;;9.75;8.50;;;;;21.10;46.87;99315.13;5077378;27;45901;-79
2022/07/16 04:16:51;;;;;;;;;11.25;10.75;;;;;21.08;47.12;99311.69;5077262;27;45566;-79
2022/07/16 04:19:17;;;;;;;;;9.50;9.50;;;;;21.07;46.91;99318.03;5076633;27;46264;-79
2022/07/16 04:21:42;;;;;;;;;9.50;9.25;;;;;21.04;47.14;99315.59;5077116;28;45502;-79
2022/07/16 04:24:08;;;;;;;;;10.50;9.00;;;;;21.05;47.42;99321.81;5077446;27;45311;-79
2022/07/16 04:26:33;;;;;;;;;11.25;9.50;;;;;21.02;47.35;99324.72;5076885;27;45570;-80
2022/07/16 04:28:58;;;;;;;;;8.75;8.75;;;;;20.98;46.57;99326.78;5076995;27;45939;-80
2022/07/16 04:31:24;;;;;;;;;14.25;10.00;;;;;20.98;47.12;99328.63;5069811;27;45490;-80
2022/07/16 04:33:49;;;;;;;;;11.00;10.00;;;;;20.95;47.32;99324.34;5075402;28;45380;-80
2022/07/16 04:36:15;;;;;;;;;10.00;9.50;;;;;20.94;47.45;99328.03;5076858;27;45460;-79
2022/07/16 04:38:41;;;;;;;;;10.50;10.50;;;;;20.94;47.23;99325.34;5076636;27;45541;-80
2022/07/16 04:41:06;;;;;;;;;11.00;10.50;;;;;20.95;47.58;99324.34;5075521;28;45475;-80
2022/07/16 04:43:32;;;;;;;;;12.00;11.25;;;;;20.95;47.55;99332.41;5076874;27;45507;-79
2022/07/16 04:45:57;;;;;;;;;9.25;9.25;;;;;20.95;48.02;99328.88;5076935;27;45401;-80
2022/07/16 04:48:23;;;;;;;;;12.75;11.00;;;;;20.95;47.08;99328.88;5076543;27;46055;-80
2022/07/16 04:50:48;;;;;;;;;11.00;11.00;;;;;20.96;48.01;99334.09;5076749;27;45453;-80
2022/07/16 04:53:13;;;;;;;;;12.75;12.75;;;;;20.96;46.94;99330.56;5076706;27;45365;-80
2022/07/16 04:55:39;;;;;;;;;11.25;11.25;;;;;20.97;47.60;99325.09;5076968;27;45460;-80
2022/07/16 04:58:05;;;;;;;;;11.75;10.50;;;;;20.97;47.68;99327.75;5076284;27;45550;-80
2022/07/16 05:00:30;;;;;;;;;9.50;8.75;;;;;21.00;47.71;99330.22;5076376;27;45440;-79
2022/07/16 05:02:58;;;;;;;;;11.00;11.00;;;;;21.02;47.50;99341.66;5076609;27;45507;-80
2022/07/16 05:05:36;;;;;;;;;8.75;8.75;;;;;21.05;47.75;99335.22;5074823;28;45898;-80
2022/07/16 05:08:04;;;;;;;;;10.00;10.00;;;;;21.07;48.09;99334.13;5076096;27;45418;-80
2022/07/16 05:10:30;;;;;;;;;10.50;10.50;;;;;21.12;48.09;99339.94;5092290;27;45203;-79
2022/07/16 05:12:57;;;;;;;;;18.67;17.67;;;;;21.14;48.22;99338.00;5076183;27;45213;-80
2022/07/16 05:15:23;;;;;;;;;12.00;10.25;;;;;21.19;47.64;99346.56;5076232;28;45589;-79
2022/07/16 05:17:48;;;;;;;;;12.50;10.50;;;;;21.23;47.46;99340.00;5075853;27;46428;-80
2022/07/16 05:20:14;;;;;;;;;13.00;12.00;;;;;21.27;47.37;99343.28;5076114;27;45356;-80
2022/07/16 05:22:40;;;;;;;;;10.25;10.25;;;;;21.29;47.76;99335.94;5075871;27;45393;-80
2022/07/16 05:25:07;;;;;;;;;11.00;11.00;;;;;21.31;47.29;99346.53;5075642;28;45545;-79
2022/07/16 05:27:34;;;;;;;;;11.00;10.50;;;;;21.31;47.56;99347.41;5075689;27;45419;-79
2022/07/16 05:30:00;;;;;;;;;12.00;12.00;;;;;21.31;47.51;99350.09;5072769;28;45459;-79
2022/07/16 05:32:25;;;;;;;;;10.50;10.50;;;;;21.32;48.36;99345.56;5072682;28;45475;-80
2022/07/16 05:34:51;;;;;;;;;12.50;11.50;;;;;21.34;47.83;99357.03;5076126;27;45313;-80
2022/07/16 05:37:16;;;;;;;;;9.25;9.25;;;;;21.31;48.34;99350.09;5075730;27;45351;-80
2022/07/16 05:39:42;;;;;;;;;14.00;13.00;;;;;21.31;48.11;99358.13;5064267;28;45512;-80
2022/07/16 05:42:07;;;;;;;;;11.50;10.00;;;;;21.29;47.86;99354.72;5076063;27;45479;-80
2022/07/16 05:44:32;;;;;;;;;9.75;9.25;;;;;21.32;47.75;99349.13;5062431;28;45216;-80
2022/07/16 05:46:58;;;;;;;;;11.50;10.50;;;;;21.35;47.84;99348.88;5074284;28;45977;-80
2022/07/16 05:49:23;;;;;;;;;10.25;10.25;;;;;21.39;47.77;99357.53;5075602;27;45423;-79
2022/07/16 05:51:49;;;;;;;;;12.00;11.50;;;;;21.41;48.37;99358.25;5075612;27;45424;-79
2022/07/16 05:54:14;;;;;;;;;15.00;12.50;;;;;21.42;48.29;99363.50;5075626;27;45351;-80
2022/07/16 05:56:39;;;;;;;;;12.25;11.25;;;;;21.44;48.32;99353.50;5075735;27;45477;-79
2022/07/16 05:59:05;;;;;;;;;14.25;12.75;;;;;21.44;48.36;99348.16;5075273;27;45406;-80
2022/07/16 06:01:31;;;;;;;;;14.00;12.25;;;;;21.47;48.21;99353.22;5074262;28;45431;-79
2022/07/16 06:03:57;;;;;;;;;9.75;9.50;;;;;21.52;48.65;99358.22;5075276;28;45436;-79
2022/07/16 06:06:22;;;;;;;;;12.50;12.50;;;;;21.50;48.54;99360.19;5075279;27;45543;-79
2022/07/16 06:08:48;;;;;;;;;11.00;10.50;;;;;21.51;48.15;99373.47;5075187;27;45322;-80
2022/07/16 06:11:13;;;;;;;;;10.25;10.25;;;;;21.51;47.88;99365.44;5075271;27;46026;-79
2022/07/16 06:13:39;;;;;;;;;11.00;11.00;;;;;21.52;47.42;99366.28;5074444;27;45419;-80
2022/07/16 06:16:07;;;;;;;;;10.00;10.00;;;;;21.55;47.53;99369.56;5074618;27;46111;-80
2022/07/16 06:18:32;;;;;;;;;10.25;10.25;;;;;21.61;47.54;99373.59;5074815;27;45351;-80
2022/07/16 06:20:58;;;;;;;;;8.25;7.00;;;;;21.64;46.97;99367.09;5075032;27;45438;-59
2022/07/16 06:23:23;;;;;;;;;14.50;12.00;;;;;21.71;47.52;99368.31;5075051;27;45496;-59
2022/07/16 06:25:48;;;;;;;;;12.75;11.50;;;;;21.75;46.89;99362.59;5070595;27;46237;-59
2022/07/16 06:28:14;;;;;;;;;7.75;7.75;;;;;21.78;47.21;99369.53;5072416;27;45574;-58
2022/07/16 06:30:39;;;;;;;;;11.75;10.75;;;;;21.78;47.29;99370.38;5075495;28;45346;-64
2022/07/16 06:33:05;;;;;;;;;9.50;9.50;;;;;21.84;47.16;99374.38;5069767;27;45463;-59
2022/07/16 06:35:30;;;;;;;;;11.50;11.50;;;;;21.86;47.21;99377.78;5074489;28;45497;-59
2022/07/16 06:37:55;;;;;;;;;9.25;9.00;;;;;21.87;47.30;99374.97;5074489;27;45454;-59
2022/07/16 06:40:21;;;;;;;;;11.75;11.75;;;;;21.89;47.45;99373.03;5074565;27;45413;-59
2022/07/16 06:42:46;;;;;;;;;13.75;12.00;;;;;21.96;46.49;99373.34;5071795;28;45389;-59
2022/07/16 06:45:11;;;;;;;;;10.75;10.75;;;;;22.03;46.97;99376.44;5074286;27;46378;-59
2022/07/16 06:47:37;;;;;;;;;14.25;13.50;;;;;22.08;47.33;99374.22;5074132;27;45447;-59
2022/07/16 06:50:02;;;;;;;;;11.75;11.25;;;;;22.09;46.92;99376.78;5072243;27;45374;-59
2022/07/16 06:52:29;;;;;;;;;11.00;10.50;;;;;22.10;47.06;99380.31;5073146;28;45596;-59
2022/07/16 06:54:54;;;;;;;;;13.50;12.75;;;;;22.09;47.02;99379.47;5072986;27;46541;-59
2022/07/16 06:57:21;;;;;;;;;14.75;13.25;;;;;22.10;46.35;99374.94;5072946;27;45392;-59
2022/07/16 06:59:46;;;;;;;;;16.00;15.00;;;;;22.10;46.51;99383.88;5073644;27;45383;-59
2022/07/16 07:02:13;;;;;;;;;11.75;6.00;;;;;22.12;46.69;99379.19;5073509;27;45368;-59
2022/07/16 07:04:39;;;;;;;;;12.75;12.75;;;;;22.19;46.21;99379.53;5074561;27;46657;-59
2022/07/16 07:07:04;;;;;;;;;14.00;11.75;;;;;22.25;46.43;99377.19;5070272;28;45853;-58
2022/07/16 07:09:30;;;;;;;;;13.50;13.00;;;;;22.31;46.59;99383.03;5073610;28;45433;-59
2022/07/16 07:11:55;;;;;;;;;14.25;11.50;;;;;22.38;46.56;99389.59;5073158;27;45550;-58
2022/07/16 07:14:21;;;;;;;;;12.75;12.75;;;;;22.44;46.17;99381.88;5070413;27;45421;-59
2022/07/16 07:16:46;;;;;;;;;10.75;10.25;;;;;22.51;45.43;99387.56;5072783;28;45500;-59
2022/07/16 07:19:11;;;;;;;;;14.50;14.00;;;;;22.56;45.58;99385.34;5073888;27;45808;-58
2022/07/16 07:21:37;;;;;;;;;9.00;9.00;;;;;22.60;45.63;99384.13;5074142;27;45471;-59
2022/07/16 07:24:03;;;;;;;;;12.25;12.25;;;;;22.63;45.61;99386.50;5073743;27;45502;-58
2022/07/16 07:26:28;;;;;;;;;15.25;14.00;;;;;22.68;45.73;99394.19;5072776;28;45365;-57
2022/07/16 07:28:54;;;;;;;;;13.25;11.00;;;;;22.74;44.84;99389.16;5072917;27;45170;-57
2022/07/16 07:31:20;;;;;;;;;19.33;19.33;;;;;22.81;45.30;99386.81;5073285;28;45208;-60
2022/07/16 07:33:45;;;;;;;;;11.00;9.00;;;;;22.84;44.49;99390.09;5073895;27;45465;-59
2022/07/16 07:36:10;;;;;;;;;9.50;9.50;;;;;22.86;44.46;99382.75;5072093;28;45667;-59
2022/07/16 07:38:36;;;;;;;;;11.00;11.00;;;;;22.90;44.84;99388.72;5071999;27;45440;-59
2022/07/16 07:41:02;;;;;;;;;12.00;12.00;;;;;22.93;44.52;99383.94;5073423;27;45308;-59
2022/07/16 07:43:27;;;;;;;;;13.00;12.75;;;;;22.96;44.65;99389.00;5071310;28;47412;-59
2022/07/16 07:45:53;;;;;;;;;11.75;10.75;;;;;23.00;44.26;99384.22;5072079;28;45403;-59
2022/07/16 07:48:18;;;;;;;;;14.50;13.00;;;;;23.04;44.57;99377.59;5073060;27;45656;-59
2022/07/16 07:50:44;;;;;;;;;9.00;9.00;;;;;23.08;43.55;99376.34;5072348;28;45526;-58
2022/07/16 07:53:09;;;;;;;;;10.25;10.25;;;;;23.09;43.90;99370.00;5073311;27;46465;-58
2022/07/16 07:55:35;;;;;;;;;10.75;10.50;;;;;23.16;43.87;99375.66;5076417;27;45448;-58
2022/07/16 07:58:01;;;;;;;;;14.25;13.25;;;;;23.23;43.95;99377.69;5074097;28;45360;-58
2022/07/16 08:00:27;;;;;;;;;12.50;10.75;;;;;23.30;44.02;99368.06;5074335;27;45419;-58
2022/07/16 08:02:52;;;;;;;;;13.00;13.00;;;;;23.37;44.11;99367.53;5071466;27;45485;-58
2022/07/16 08:05:18;;;;;;;;;11.75;11.00;;;;;23.45;44.11;99370.41;5074130;27;45597;-58
2022/07/16 08:07:44;;;;;;;;;10.25;10.25;;;;;23.52;44.33;99356.28;5076014;27;45468;-58
2022/07/16 08:10:10;;;;;;;;;11.25;10.00;;;;;23.59;44.10;99362.84;5076243;27;45372;-58
2022/07/16 08:12:38;;;;;;;;;10.50;10.50;;;;;23.64;43.68;99357.88;5074100;27;46579;-58
2022/07/16 08:15:05;;;;;;;;;15.00;14.00;;;;;23.69;44.24;99360.16;5076374;28;45464;-58
2022/07/16 08:17:30;;;;;;;;;7.25;7.00;;;;;23.79;43.81;99365.56;5076090;27;45388;-58
2022/07/16 08:19:56;;;;;;;;;12.00;12.00;;;;;23.85;43.80;99362.31;5075622;27;45487;-59
2022/07/16 08:22:21;;;;;;;;;11.00;11.00;;;;;23.91;44.13;99356.38;5076364;27;46231;-58
2022/07/16 08:27:30;;;;;;;;;11.00;11.00;;;;;24.06;43.19;99356.81;5075498;28;45413;-58
2022/07/16 08:29:56;;;;;;;;;12.25;12.25;;;;;24.12;42.79;99361.63;5076129;27;45612;-58
2022/07/16 08:32:21;;;;;;;;;11.00;11.00;;;;;24.16;42.60;99346.88;5073318;27;45561;-58
2022/07/16 08:34:47;;;;;;;;;13.25;12.50;;;;;24.22;42.24;99360.63;5075012;28;45483;-58
2022/07/16 08:37:13;;;;;;;;;14.25;10.75;;;;;24.28;42.52;99359.25;5075831;28;45450;-58
2022/07/16 08:39:43;;;;;;;;;13.25;12.00;;;;;24.34;42.60;99359.53;5074631;28;45412;-58
2022/07/16 08:42:13;;;;;;;;;13.50;13.25;;;;;24.43;42.57;99357.81;5075843;27;47072;-58
2022/07/16 08:44:40;;;;;;;;;12.25;10.50;;;;;24.53;42.41;99352.41;5075824;27;45367;-58
2022/07/16 08:47:08;;;;;;;;;13.00;12.00;;;;;24.63;41.61;99361.34;5075361;27;45432;-58
2022/07/16 08:49:35;;;;;;;;;13.50;12.25;;;;;24.70;41.65;99352.53;5074689;27;45360;-58
2022/07/16 08:52:02;;;;;;;;;11.50;10.50;;;;;24.82;41.63;99355.03;5074976;27;45500;-58
2022/07/16 08:54:28;;;;;;;;;12.25;12.25;;;;;24.91;41.89;99351.47;5074657;27;45424;-58
2022/07/16 08:56:54;;;;;;;;;12.00;10.75;;;;;24.97;41.69;99342.81;5075528;27;45313;-58
2022/07/16 08:59:19;;;;;;;;;13.00;11.25;;;;;25.03;41.45;99344.94;5074303;27;45581;-58
2022/07/16 09:01:45;;;;;;;;;11.75;11.75;;;;;25.11;41.83;99336.13;5068009;27;46462;-58
2022/07/16 09:04:10;;;;;;;;;12.25;11.50;;;;;25.20;41.87;99341.44;5074177;27;45492;-58
2022/07/16 09:06:36;;;;;;;;;13.75;11.50;;;;;25.27;41.84;99339.88;5074852;28;45634;-58
2022/07/16 09:09:01;;;;;;;;;11.50;10.00;;;;;25.32;41.39;99342.94;5074413;27;45205;-58
2022/07/16 09:11:34;;;;;;;;;10.50;10.50;;;;;25.42;41.30;99336.66;5075305;27;46238;-58
2022/07/16 09:14:06;;;;;;;;;12.00;12.00;;;;;25.50;40.97;99337.59;5075264;27;45355;-59
2022/07/16 09:16:35;;;;;;;;;11.50;11.50;;;;;25.57;40.91;99324.34;5075450;28;45506;-58
2022/07/16 09:19:07;;;;;;;;;14.75;13.25;;;;;25.66;41.13;99320.75;5075186;27;45391;-58
2022/07/16 09:21:33;;;;;;;;;12.75;12.50;;;;;25.77;41.09;99328.66;5074882;28;45564;-58
2022/07/16 09:23:59;;;;;;;;;12.25;12.25;;;;;25.85;40.80;99326.03;5074234;27;45483;-59
2022/07/16 09:26:27;;;;;;;;;12.75;12.75;;;;;25.92;39.89;99319.03;5073573;27;45570;-58
2022/07/16 09:28:54;;;;;;;;;11.50;10.75;;;;;25.97;39.87;99321.28;5074241;27;45306;-58
2022/07/16 09:31:41;;;;;;;;;14.00;14.00;;;;;26.04;39.88;99314.22;5068285;27;45469;-59
2022/07/16 09:34:10;;;;;;;;;13.25;13.25;;;;;26.10;39.60;99320.88;5068282;28;45383;-58
2022/07/16 09:36:37;;;;;;;;;12.25;12.00;;;;;26.17;39.92;99317.38;5073815;27;45370;-58
2022/07/16 09:39:05;;;;;;;;;11.50;11.50;;;;;26.23;39.73;99316.75;5073237;28;45421;-58
2022/07/16 09:41:43;;;;;;;;;11.25;11.25;;;;;26.28;40.08;99314.47;5073599;28;46527;-58
2022/07/16 09:44:17;;;;;;;;;13.50;13.00;;;;;26.36;39.64;99324.50;5074085;27;45369;-58
2022/07/16 09:47:08;;;;;;;;;12.25;12.25;;;;;26.46;39.46;99314.47;5074450;27;45445;-60
2022/07/16 09:49:36;;;;;;;;;12.50;11.00;;;;;26.57;39.60;99321.44;5072553;28;45512;-58
2022/07/16 09:52:06;;;;;;;;;10.75;10.75;;;;;26.64;39.42;99317.13;5073379;27;46074;-59
2022/07/16 09:54:34;;;;;;;;;13.50;13.25;;;;;26.71;38.86;99312.75;5072799;28;45508;-58
2022/07/16 09:57:12;;;;;;;;;10.75;10.75;;;;;26.78;39.37;99297.59;5074180;27;45413;-58
2022/07/16 09:59:38;;;;;;;;;15.50;11.75;;;;;26.85;39.17;99300.50;5074577;27;45365;-58
2022/07/16 10:02:04;;;;;;;;;13.75;12.75;;;;;26.92;38.97;99296.16;5073870;27;46287;-58
2022/07/16 10:04:29;;;;;;;;;12.25;11.75;;;;;27.00;38.69;99293.50;5074236;27;45324;-58
2022/07/16 10:06:56;;;;;;;;;20.00;16.00;;;;;27.04;38.49;99303.84;5074038;27;45449;-58
2022/07/16 10:09:22;;;;;;;;;11.75;11.75;;;;;27.10;38.48;99294.25;5055893;28;45389;-58
2022/07/16 10:11:47;;;;;;;;;14.00;12.75;;;;;27.18;38.34;99293.41;5073049;27;45423;-58
2022/07/16 10:14:13;;;;;;;;;13.00;12.00;;;;;27.23;38.30;99297.34;5074199;27;45391;-58
2022/07/16 10:16:40;;;;;;;;;14.25;13.00;;;;;27.29;38.00;99290.44;5072164;28;45416;-59
2022/07/16 10:19:08;;;;;;;;;13.25;11.50;;;;;27.34;38.33;99291.59;5073841;27;45568;-58
2022/07/16 10:21:34;;;;;;;;;8.75;7.75;;;;;27.42;38.05;99290.81;5073238;27;46106;-58
2022/07/16 10:24:05;;;;;;;;;12.00;11.75;;;;;27.45;38.07;99280.50;5073274;27;45357;-58
2022/07/16 10:26:34;;;;;;;;;12.25;12.25;;;;;27.53;38.10;99303.19;5073924;27;45489;-58
2022/07/16 10:29:01;;;;;;;;;12.00;11.00;;;;;27.59;37.88;99283.59;5073514;27;45479;-58
2022/07/16 10:34:39;;;;;;;;;11.00;11.00;;;;;27.74;37.83;99280.06;5073909;28;45465;-58
2022/07/16 10:37:07;;;;;;;;;13.25;12.25;;;;;27.76;37.89;99294.31;5063647;28;45392;-58
2022/07/16 10:39:33;;;;;;;;;11.25;11.25;;;;;27.78;38.15;99286.00;5102059;27;45381;-58
2022/07/16 10:42:04;;;;;;;;;12.00;12.00;;;;;27.82;37.80;99278.41;5073897;28;46038;-58
2022/07/16 10:44:45;;;;;;;;;9.00;9.00;;;;;27.88;37.66;99266.88;5073990;27;45513;-58
2022/07/16 10:47:11;;;;;;;;;12.50;12.00;;;;;27.97;37.71;99268.59;5073870;27;45422;-59
2022/07/16 10:49:37;;;;;;;;;13.25;12.50;;;;;28.04;37.83;99285.84;5074130;28;45339;-58
2022/07/16 10:52:05;;;;;;;;;15.00;14.50;;;;;28.08;37.03;99284.50;5073336;27;46114;-58
2022/07/16 10:54:35;;;;;;;;;12.75;12.75;;;;;28.13;37.15;99269.44;5073674;27;45352;-58
2022/07/16 10:57:03;;;;;;;;;11.75;8.50;;;;;28.22;37.06;99269.47;5073847;27;45826;-58
2022/07/16 10:59:32;;;;;;;;;11.00;10.25;;;;;28.30;37.37;99269.47;5073443;27;45395;-58
2022/07/16 11:02:01;;;;;;;;;17.00;15.75;;;;;28.38;36.48;99258.59;5073256;27;46384;-58
2022/07/16 11:04:37;;;;;;;;;16.00;12.50;;;;;28.41;36.53;99269.94;5072908;28;45514;-59
2022/07/16 11:07:08;;;;;;;;;14.00;12.00;;;;;28.46;36.88;99267.59;5073124;28;45601;-58
2022/07/16 11:09:38;;;;;;;;;13.75;12.25;;;;;28.58;36.26;99261.78;5070157;27;45460;-59
2022/07/16 11:12:21;;;;;;;;;12.00;12.00;;;;;28.60;36.28;99260.59;5073464;27;45399;-58
2022/07/16 11:14:49;;;;;;;;;9.75;8.50;;;;;28.67;35.69;99269.72;5073285;27;45591;-59
2022/07/16 11:17:16;;;;;;;;;11.25;9.50;;;;;28.68;36.09;99274.13;5073774;27;45372;-60
2022/07/16 11:19:44;;;;;;;;;13.00;11.75;;;;;28.72;35.99;99255.63;5074012;27;45360;-61
2022/07/16 11:22:11;;;;;;;;;9.75;9.75;;;;;28.74;35.54;99248.19;5072928;28;46616;-60
2022/07/16 11:24:51;;;;;;;;;16.00;15.25;;;;;28.78;35.82;99250.38;5073862;27;45439;-53
2022/07/16 11:27:24;;;;;;;;;13.00;11.25;;;;;28.83;35.61;99258.00;5073178;27;45376;-61
2022/07/16 11:29:59;;;;;;;;;10.00;10.00;;;;;28.88;35.49;99252.91;5077543;27;45297;-61
2022/07/16 11:32:25;;;;;;;;;8.00;7.75;;;;;28.94;35.34;99248.66;5077296;27;45466;-61